sensor_id;sensor_type;location;lat;lon;timestamp;P1;durP1;ratioP1;P2;durP2;ratioP2
74528;SDS011;63009;52.584;5.932;2023-08-21T00:00:59;8.52;;;2.40;;
74528;SDS011;63009;52.584;5.932;2023-08-21T00:03:24;8.02;;;2.10;;
74528;SDS011;63009;52.584;5.932;2023-08-21T00:05:50;7.97;;;2.45;;
74528;SDS011;63009;52.584;5.932;2023-08-21T00:08:15;9.87;;;2.10;;
74528;SDS011;63009;52.584;5.932;2023-08-21T00:10:40;10.02;;;2.53;;
74528;SDS011;63009;52.584;5.932;2023-08-21T00:13:06;7.43;;;2.45;;
74528;SDS011;63009;52.584;5.932;2023-08-21T00:15:31;7.30;;;2.13;;
74528;SDS011;63009;52.584;5.932;2023-08-21T00:17:57;8.55;;;2.25;;
74528;SDS011;63009;52.584;5.932;2023-08-21T00:20:22;7.80;;;2.30;;
74528;SDS011;63009;52.584;5.932;2023-08-21T00:22:47;7.45;;;2.17;;
74528;SDS011;63009;52.584;5.932;2023-08-21T00:25:13;7.27;;;1.90;;
74528;SDS011;63009;52.584;5.932;2023-08-21T00:27:38;6.70;;;2.00;;
74528;SDS011;63009;52.584;5.932;2023-08-21T00:30:03;6.70;;;2.00;;
74528;SDS011;63009;52.584;5.932;2023-08-21T00:32:29;6.07;;;1.90;;
74528;SDS011;63009;52.584;5.932;2023-08-21T00:34:54;6.00;;;1.80;;
74528;SDS011;63009;52.584;5.932;2023-08-21T00:37:19;9.33;;;1.80;;
74528;SDS011;63009;52.584;5.932;2023-08-21T00:39:45;5.30;;;1.83;;
74528;SDS011;63009;52.584;5.932;2023-08-21T00:42:10;7.67;;;2.27;;
74528;SDS011;63009;52.584;5.932;2023-08-21T00:44:35;7.73;;;2.30;;
74528;SDS011;63009;52.584;5.932;2023-08-21T00:47:00;7.43;;;2.33;;
74528;SDS011;63009;52.584;5.932;2023-08-21T00:49:26;9.07;;;2.30;;
74528;SDS011;63009;52.584;5.932;2023-08-21T00:51:52;8.38;;;2.67;;
74528;SDS011;63009;52.584;5.932;2023-08-21T00:54:18;8.13;;;2.70;;
74528;SDS011;63009;52.584;5.932;2023-08-21T00:56:44;6.97;;;2.28;;
74528;SDS011;63009;52.584;5.932;2023-08-21T00:59:09;8.32;;;2.25;;
74528;SDS011;63009;52.584;5.932;2023-08-21T01:01:35;7.03;;;2.53;;
74528;SDS011;63009;52.584;5.932;2023-08-21T01:04:02;7.18;;;2.00;;
74528;SDS011;63009;52.584;5.932;2023-08-21T01:06:28;7.45;;;2.72;;
74528;SDS011;63009;52.584;5.932;2023-08-21T01:09:39;7.72;;;2.30;;
74528;SDS011;63009;52.584;5.932;2023-08-21T01:11:58;7.82;;;2.20;;
74528;SDS011;63009;52.584;5.932;2023-08-21T01:14:50;6.65;;;1.95;;
74528;SDS011;63009;52.584;5.932;2023-08-21T01:17:28;6.55;;;2.00;;
74528;SDS011;63009;52.584;5.932;2023-08-21T01:19:55;5.93;;;1.80;;
74528;SDS011;63009;52.584;5.932;2023-08-21T01:22:34;8.38;;;2.50;;
74528;SDS011;63009;52.584;5.932;2023-08-21T01:25:01;6.50;;;2.20;;
74528;SDS011;63009;52.584;5.932;2023-08-21T01:27:26;6.27;;;2.13;;
74528;SDS011;63009;52.584;5.932;2023-08-21T01:29:51;6.40;;;2.10;;
74528;SDS011;63009;52.584;5.932;2023-08-21T01:32:21;7.18;;;2.42;;
74528;SDS011;63009;52.584;5.932;2023-08-21T01:34:51;7.75;;;2.40;;
74528;SDS011;63009;52.584;5.932;2023-08-21T01:37:20;7.05;;;2.20;;
74528;SDS011;63009;52.584;5.932;2023-08-21T01:39:46;7.95;;;2.90;;
74528;SDS011;63009;52.584;5.932;2023-08-21T01:42:11;8.43;;;2.60;;
74528;SDS011;63009;52.584;5.932;2023-08-21T01:44:37;10.07;;;2.90;;
74528;SDS011;63009;52.584;5.932;2023-08-21T01:47:02;9.20;;;3.17;;
74528;SDS011;63009;52.584;5.932;2023-08-21T01:49:27;8.63;;;3.10;;
74528;SDS011;63009;52.584;5.932;2023-08-21T01:51:52;10.25;;;2.97;;
74528;SDS011;63009;52.584;5.932;2023-08-21T01:54:18;9.27;;;2.63;;
74528;SDS011;63009;52.584;5.932;2023-08-21T01:56:43;7.60;;;2.43;;
74528;SDS011;63009;52.584;5.932;2023-08-21T01:59:08;7.00;;;2.20;;
74528;SDS011;63009;52.584;5.932;2023-08-21T02:01:34;5.93;;;1.90;;
74528;SDS011;63009;52.584;5.932;2023-08-21T02:03:59;7.30;;;2.57;;
74528;SDS011;63009;52.584;5.932;2023-08-21T02:06:24;6.80;;;2.15;;
74528;SDS011;63009;52.584;5.932;2023-08-21T02:08:49;6.03;;;1.97;;
74528;SDS011;63009;52.584;5.932;2023-08-21T02:11:15;7.37;;;2.13;;
74528;SDS011;63009;52.584;5.932;2023-08-21T02:13:40;8.85;;;2.95;;
74528;SDS011;63009;52.584;5.932;2023-08-21T02:16:05;12.00;;;3.10;;
74528;SDS011;63009;52.584;5.932;2023-08-21T02:18:31;11.15;;;3.42;;
74528;SDS011;63009;52.584;5.932;2023-08-21T02:20:56;8.03;;;2.40;;
74528;SDS011;63009;52.584;5.932;2023-08-21T02:23:21;5.90;;;2.50;;
74528;SDS011;63009;52.584;5.932;2023-08-21T02:25:49;5.50;;;1.63;;
74528;SDS011;63009;52.584;5.932;2023-08-21T02:28:14;5.97;;;1.73;;
74528;SDS011;63009;52.584;5.932;2023-08-21T02:30:40;6.23;;;1.80;;
74528;SDS011;63009;52.584;5.932;2023-08-21T02:33:05;6.85;;;2.25;;
74528;SDS011;63009;52.584;5.932;2023-08-21T02:35:31;5.90;;;2.43;;
74528;SDS011;63009;52.584;5.932;2023-08-21T02:37:56;8.27;;;1.97;;
74528;SDS011;63009;52.584;5.932;2023-08-21T02:40:21;7.83;;;2.50;;
74528;SDS011;63009;52.584;5.932;2023-08-21T02:42:47;7.37;;;2.30;;
74528;SDS011;63009;52.584;5.932;2023-08-21T02:45:12;8.70;;;2.40;;
74528;SDS011;63009;52.584;5.932;2023-08-21T02:47:37;6.87;;;2.50;;
74528;SDS011;63009;52.584;5.932;2023-08-21T02:50:07;7.38;;;2.33;;
74528;SDS011;63009;52.584;5.932;2023-08-21T02:52:33;6.80;;;2.53;;
74528;SDS011;63009;52.584;5.932;2023-08-21T02:55:00;7.57;;;2.97;;
74528;SDS011;63009;52.584;5.932;2023-08-21T02:57:26;7.38;;;2.72;;
74528;SDS011;63009;52.584;5.932;2023-08-21T02:59:51;7.45;;;2.42;;
74528;SDS011;63009;52.584;5.932;2023-08-21T03:02:17;8.43;;;3.13;;
74528;SDS011;63009;52.584;5.932;2023-08-21T03:04:43;8.30;;;3.15;;
74528;SDS011;63009;52.584;5.932;2023-08-21T03:07:09;7.80;;;3.20;;
74528;SDS011;63009;52.584;5.932;2023-08-21T03:09:35;8.07;;;2.88;;
74528;SDS011;63009;52.584;5.932;2023-08-21T03:12:01;6.68;;;2.30;;
74528;SDS011;63009;52.584;5.932;2023-08-21T03:14:26;8.60;;;3.15;;
74528;SDS011;63009;52.584;5.932;2023-08-21T03:16:52;7.03;;;2.50;;
74528;SDS011;63009;52.584;5.932;2023-08-21T03:19:17;7.82;;;2.45;;
74528;SDS011;63009;52.584;5.932;2023-08-21T03:21:42;8.03;;;2.60;;
74528;SDS011;63009;52.584;5.932;2023-08-21T03:24:08;7.67;;;2.53;;
74528;SDS011;63009;52.584;5.932;2023-08-21T03:26:33;6.32;;;2.47;;
74528;SDS011;63009;52.584;5.932;2023-08-21T03:28:58;6.00;;;2.30;;
74528;SDS011;63009;52.584;5.932;2023-08-21T03:31:23;6.87;;;1.90;;
74528;SDS011;63009;52.584;5.932;2023-08-21T03:33:49;6.50;;;2.63;;
74528;SDS011;63009;52.584;5.932;2023-08-21T03:36:14;6.87;;;2.43;;
74528;SDS011;63009;52.584;5.932;2023-08-21T03:38:39;7.20;;;2.23;;
74528;SDS011;63009;52.584;5.932;2023-08-21T03:41:05;5.88;;;2.10;;
74528;SDS011;63009;52.584;5.932;2023-08-21T03:43:30;5.50;;;1.80;;
74528;SDS011;63009;52.584;5.932;2023-08-21T03:45:56;5.82;;;1.83;;
74528;SDS011;63009;52.584;5.932;2023-08-21T03:48:22;7.43;;;2.13;;
74528;SDS011;63009;52.584;5.932;2023-08-21T03:50:48;10.05;;;3.63;;
74528;SDS011;63009;52.584;5.932;2023-08-21T03:53:14;9.23;;;3.78;;
74528;SDS011;63009;52.584;5.932;2023-08-21T03:55:39;9.13;;;3.73;;
74528;SDS011;63009;52.584;5.932;2023-08-21T03:58:04;10.33;;;4.07;;
74528;SDS011;63009;52.584;5.932;2023-08-21T04:00:30;9.77;;;3.50;;
74528;SDS011;63009;52.584;5.932;2023-08-21T04:02:55;10.13;;;3.90;;
74528;SDS011;63009;52.584;5.932;2023-08-21T04:05:21;10.07;;;3.78;;
74528;SDS011;63009;52.584;5.932;2023-08-21T04:07:46;7.70;;;3.57;;
74528;SDS011;63009;52.584;5.932;2023-08-21T04:10:11;8.73;;;3.40;;
74528;SDS011;63009;52.584;5.932;2023-08-21T04:12:37;8.50;;;3.53;;
74528;SDS011;63009;52.584;5.932;2023-08-21T04:15:02;11.20;;;4.73;;
74528;SDS011;63009;52.584;5.932;2023-08-21T04:17:27;7.78;;;3.78;;
74528;SDS011;63009;52.584;5.932;2023-08-21T04:19:53;7.47;;;3.60;;
74528;SDS011;63009;52.584;5.932;2023-08-21T04:22:18;8.47;;;3.40;;
74528;SDS011;63009;52.584;5.932;2023-08-21T04:24:44;8.55;;;2.88;;
74528;SDS011;63009;52.584;5.932;2023-08-21T04:27:09;7.43;;;3.53;;
74528;SDS011;63009;52.584;5.932;2023-08-21T04:29:35;11.70;;;3.30;;
74528;SDS011;63009;52.584;5.932;2023-08-21T04:32:01;6.95;;;2.53;;
74528;SDS011;63009;52.584;5.932;2023-08-21T04:34:26;8.10;;;2.67;;
74528;SDS011;63009;52.584;5.932;2023-08-21T04:36:51;5.65;;;2.25;;
74528;SDS011;63009;52.584;5.932;2023-08-21T04:39:17;7.78;;;2.30;;
74528;SDS011;63009;52.584;5.932;2023-08-21T04:41:42;6.70;;;2.50;;
74528;SDS011;63009;52.584;5.932;2023-08-21T04:44:08;7.50;;;2.53;;
74528;SDS011;63009;52.584;5.932;2023-08-21T04:46:33;6.17;;;2.50;;
74528;SDS011;63009;52.584;5.932;2023-08-21T04:48:58;7.17;;;2.70;;
74528;SDS011;63009;52.584;5.932;2023-08-21T04:51:23;8.70;;;3.40;;
74528;SDS011;63009;52.584;5.932;2023-08-21T04:53:49;8.10;;;3.20;;
74528;SDS011;63009;52.584;5.932;2023-08-21T04:56:14;7.77;;;3.60;;
74528;SDS011;63009;52.584;5.932;2023-08-21T04:58:39;8.23;;;3.30;;
74528;SDS011;63009;52.584;5.932;2023-08-21T05:01:05;8.15;;;3.35;;
74528;SDS011;63009;52.584;5.932;2023-08-21T05:03:30;8.00;;;4.23;;
74528;SDS011;63009;52.584;5.932;2023-08-21T05:05:56;9.90;;;4.33;;
74528;SDS011;63009;52.584;5.932;2023-08-21T05:08:22;10.80;;;4.28;;
74528;SDS011;63009;52.584;5.932;2023-08-21T05:10:50;9.52;;;4.90;;
74528;SDS011;63009;52.584;5.932;2023-08-21T05:13:19;7.85;;;4.40;;
74528;SDS011;63009;52.584;5.932;2023-08-21T05:15:44;10.30;;;4.37;;
74528;SDS011;63009;52.584;5.932;2023-08-21T05:18:17;10.18;;;4.45;;
74528;SDS011;63009;52.584;5.932;2023-08-21T05:20:42;9.33;;;4.50;;
74528;SDS011;63009;52.584;5.932;2023-08-21T05:23:07;9.53;;;4.90;;
74528;SDS011;63009;52.584;5.932;2023-08-21T05:25:33;11.20;;;4.53;;
74528;SDS011;63009;52.584;5.932;2023-08-21T05:27:58;11.40;;;4.70;;
74528;SDS011;63009;52.584;5.932;2023-08-21T05:30:24;8.93;;;4.27;;
74528;SDS011;63009;52.584;5.932;2023-08-21T05:32:50;8.85;;;4.95;;
74528;SDS011;63009;52.584;5.932;2023-08-21T05:35:15;9.63;;;5.03;;
74528;SDS011;63009;52.584;5.932;2023-08-21T05:37:40;9.10;;;4.40;;
74528;SDS011;63009;52.584;5.932;2023-08-21T05:40:06;9.10;;;4.70;;
74528;SDS011;63009;52.584;5.932;2023-08-21T05:42:32;10.02;;;4.65;;
74528;SDS011;63009;52.584;5.932;2023-08-21T05:44:58;8.48;;;4.28;;
74528;SDS011;63009;52.584;5.932;2023-08-21T05:47:23;11.07;;;5.10;;
74528;SDS011;63009;52.584;5.932;2023-08-21T05:49:49;10.77;;;5.90;;
74528;SDS011;63009;52.584;5.932;2023-08-21T05:52:15;9.40;;;5.50;;
74528;SDS011;63009;52.584;5.932;2023-08-21T05:54:40;9.57;;;5.15;;
74528;SDS011;63009;52.584;5.932;2023-08-21T05:57:05;10.80;;;5.45;;
74528;SDS011;63009;52.584;5.932;2023-08-21T05:59:31;9.20;;;4.97;;
74528;SDS011;63009;52.584;5.932;2023-08-21T06:01:57;10.10;;;4.80;;
74528;SDS011;63009;52.584;5.932;2023-08-21T06:04:22;9.40;;;4.87;;
74528;SDS011;63009;52.584;5.932;2023-08-21T06:06:48;8.90;;;4.95;;
74528;SDS011;63009;52.584;5.932;2023-08-21T06:09:13;10.10;;;5.30;;
74528;SDS011;63009;52.584;5.932;2023-08-21T06:11:38;10.83;;;5.17;;
74528;SDS011;63009;52.584;5.932;2023-08-21T06:14:04;12.75;;;5.07;;
74528;SDS011;63009;52.584;5.932;2023-08-21T06:16:29;9.27;;;5.00;;
74528;SDS011;63009;52.584;5.932;2023-08-21T06:18:54;10.63;;;5.72;;
74528;SDS011;63009;52.584;5.932;2023-08-21T06:21:19;9.07;;;4.57;;
74528;SDS011;63009;52.584;5.932;2023-08-21T06:23:45;14.75;;;5.35;;
74528;SDS011;63009;52.584;5.932;2023-08-21T06:26:10;14.33;;;5.43;;
74528;SDS011;63009;52.584;5.932;2023-08-21T06:28:35;13.47;;;4.53;;
74528;SDS011;63009;52.584;5.932;2023-08-21T06:31:01;12.77;;;4.97;;
74528;SDS011;63009;52.584;5.932;2023-08-21T06:33:32;12.77;;;5.45;;
74528;SDS011;63009;52.584;5.932;2023-08-21T06:35:57;11.45;;;5.55;;
74528;SDS011;63009;52.584;5.932;2023-08-21T06:38:23;11.23;;;4.63;;
74528;SDS011;63009;52.584;5.932;2023-08-21T06:40:48;11.53;;;5.83;;
74528;SDS011;63009;52.584;5.932;2023-08-21T06:43:13;10.67;;;4.70;;
74528;SDS011;63009;52.584;5.932;2023-08-21T06:45:38;13.30;;;5.37;;
74528;SDS011;63009;52.584;5.932;2023-08-21T06:48:04;10.60;;;5.30;;
74528;SDS011;63009;52.584;5.932;2023-08-21T06:50:30;11.00;;;4.32;;
74528;SDS011;63009;52.584;5.932;2023-08-21T06:52:55;13.10;;;5.40;;
74528;SDS011;63009;52.584;5.932;2023-08-21T06:55:20;12.23;;;5.90;;
74528;SDS011;63009;52.584;5.932;2023-08-21T06:57:46;11.52;;;4.65;;
74528;SDS011;63009;52.584;5.932;2023-08-21T07:00:11;10.83;;;4.13;;
74528;SDS011;63009;52.584;5.932;2023-08-21T07:02:37;12.50;;;3.88;;
74528;SDS011;63009;52.584;5.932;2023-08-21T07:05:02;11.23;;;4.23;;
74528;SDS011;63009;52.584;5.932;2023-08-21T07:07:28;12.00;;;4.70;;
74528;SDS011;63009;52.584;5.932;2023-08-21T07:09:53;10.60;;;3.93;;
74528;SDS011;63009;52.584;5.932;2023-08-21T07:12:18;13.63;;;3.67;;
74528;SDS011;63009;52.584;5.932;2023-08-21T07:14:43;12.57;;;3.87;;
74528;SDS011;63009;52.584;5.932;2023-08-21T07:17:09;17.10;;;4.83;;
74528;SDS011;63009;52.584;5.932;2023-08-21T07:19:34;9.63;;;3.50;;
74528;SDS011;63009;52.584;5.932;2023-08-21T07:22:00;13.13;;;4.00;;
74528;SDS011;63009;52.584;5.932;2023-08-21T07:24:26;14.48;;;4.75;;
74528;SDS011;63009;52.584;5.932;2023-08-21T07:26:51;11.43;;;3.30;;
74528;SDS011;63009;52.584;5.932;2023-08-21T07:29:16;14.60;;;4.60;;
74528;SDS011;63009;52.584;5.932;2023-08-21T07:31:42;10.03;;;3.70;;
74528;SDS011;63009;52.584;5.932;2023-08-21T07:34:07;12.63;;;4.27;;
74528;SDS011;63009;52.584;5.932;2023-08-21T07:36:33;10.43;;;3.45;;
74528;SDS011;63009;52.584;5.932;2023-08-21T07:38:58;11.32;;;3.78;;
74528;SDS011;63009;52.584;5.932;2023-08-21T07:41:23;14.97;;;3.80;;
74528;SDS011;63009;52.584;5.932;2023-08-21T07:43:49;10.80;;;3.13;;
74528;SDS011;63009;52.584;5.932;2023-08-21T07:46:14;8.67;;;2.77;;
74528;SDS011;63009;52.584;5.932;2023-08-21T07:48:43;13.20;;;4.00;;
74528;SDS011;63009;52.584;5.932;2023-08-21T07:51:09;10.13;;;4.03;;
74528;SDS011;63009;52.584;5.932;2023-08-21T07:53:34;16.20;;;5.20;;
74528;SDS011;63009;52.584;5.932;2023-08-21T07:56:00;11.25;;;3.38;;
74528;SDS011;63009;52.584;5.932;2023-08-21T07:58:26;11.27;;;3.45;;
74528;SDS011;63009;52.584;5.932;2023-08-21T08:00:52;10.70;;;2.80;;
74528;SDS011;63009;52.584;5.932;2023-08-21T08:03:17;8.82;;;2.78;;
74528;SDS011;63009;52.584;5.932;2023-08-21T08:05:43;18.02;;;3.25;;
74528;SDS011;63009;52.584;5.932;2023-08-21T08:08:08;10.43;;;2.83;;
74528;SDS011;63009;52.584;5.932;2023-08-21T08:10:40;10.82;;;2.88;;
74528;SDS011;63009;52.584;5.932;2023-08-21T08:13:06;10.68;;;2.40;;
74528;SDS011;63009;52.584;5.932;2023-08-21T08:15:32;10.73;;;2.72;;
74528;SDS011;63009;52.584;5.932;2023-08-21T08:17:59;9.30;;;2.70;;
74528;SDS011;63009;52.584;5.932;2023-08-21T08:20:25;9.88;;;2.63;;
74528;SDS011;63009;52.584;5.932;2023-08-21T08:22:50;11.48;;;2.28;;
74528;SDS011;63009;52.584;5.932;2023-08-21T08:25:15;9.03;;;2.20;;
74528;SDS011;63009;52.584;5.932;2023-08-21T08:27:41;7.63;;;2.10;;
74528;SDS011;63009;52.584;5.932;2023-08-21T08:30:07;8.45;;;2.28;;
74528;SDS011;63009;52.584;5.932;2023-08-21T08:32:33;8.07;;;1.48;;
74528;SDS011;63009;52.584;5.932;2023-08-21T08:35:00;10.27;;;2.03;;
74528;SDS011;63009;52.584;5.932;2023-08-21T08:37:25;8.00;;;1.80;;
74528;SDS011;63009;52.584;5.932;2023-08-21T08:39:50;8.60;;;2.40;;
74528;SDS011;63009;52.584;5.932;2023-08-21T08:42:16;12.65;;;2.88;;
74528;SDS011;63009;52.584;5.932;2023-08-21T08:44:42;8.38;;;2.05;;
74528;SDS011;63009;52.584;5.932;2023-08-21T08:47:08;7.38;;;1.80;;
74528;SDS011;63009;52.584;5.932;2023-08-21T08:49:35;7.85;;;1.88;;
74528;SDS011;63009;52.584;5.932;2023-08-21T08:52:01;7.60;;;1.52;;
74528;SDS011;63009;52.584;5.932;2023-08-21T08:54:26;5.73;;;1.50;;
74528;SDS011;63009;52.584;5.932;2023-08-21T08:56:52;8.82;;;2.05;;
74528;SDS011;63009;52.584;5.932;2023-08-21T08:59:18;8.38;;;1.67;;
74528;SDS011;63009;52.584;5.932;2023-08-21T09:01:44;7.70;;;1.80;;
74528;SDS011;63009;52.584;5.932;2023-08-21T09:04:09;9.33;;;1.80;;
74528;SDS011;63009;52.584;5.932;2023-08-21T09:06:35;7.45;;;1.40;;
74528;SDS011;63009;52.584;5.932;2023-08-21T09:09:00;10.43;;;2.08;;
74528;SDS011;63009;52.584;5.932;2023-08-21T09:11:26;7.13;;;1.60;;
74528;SDS011;63009;52.584;5.932;2023-08-21T09:13:53;9.00;;;1.95;;
74528;SDS011;63009;52.584;5.932;2023-08-21T09:16:20;8.63;;;2.25;;
74528;SDS011;63009;52.584;5.932;2023-08-21T09:18:46;7.53;;;1.58;;
74528;SDS011;63009;52.584;5.932;2023-08-21T09:21:19;7.55;;;1.40;;
74528;SDS011;63009;52.584;5.932;2023-08-21T09:23:45;9.15;;;1.67;;
74528;SDS011;63009;52.584;5.932;2023-08-21T09:26:20;4.78;;;1.10;;
74528;SDS011;63009;52.584;5.932;2023-08-21T09:28:46;9.43;;;1.42;;
74528;SDS011;63009;52.584;5.932;2023-08-21T09:31:13;6.85;;;1.45;;
74528;SDS011;63009;52.584;5.932;2023-08-21T09:33:39;6.38;;;1.48;;
74528;SDS011;63009;52.584;5.932;2023-08-21T09:36:05;5.88;;;1.42;;
74528;SDS011;63009;52.584;5.932;2023-08-21T09:38:30;8.53;;;1.83;;
74528;SDS011;63009;52.584;5.932;2023-08-21T09:40:56;4.47;;;1.20;;
74528;SDS011;63009;52.584;5.932;2023-08-21T09:43:22;8.73;;;1.55;;
74528;SDS011;63009;52.584;5.932;2023-08-21T09:45:52;6.95;;;1.50;;
74528;SDS011;63009;52.584;5.932;2023-08-21T09:48:23;6.18;;;1.25;;
74528;SDS011;63009;52.584;5.932;2023-08-21T09:50:52;7.68;;;1.80;;
74528;SDS011;63009;52.584;5.932;2023-08-21T09:53:17;6.82;;;1.30;;
74528;SDS011;63009;52.584;5.932;2023-08-21T09:55:43;6.17;;;1.60;;
74528;SDS011;63009;52.584;5.932;2023-08-21T09:58:09;7.30;;;1.65;;
74528;SDS011;63009;52.584;5.932;2023-08-21T10:00:37;8.50;;;1.48;;
74528;SDS011;63009;52.584;5.932;2023-08-21T10:03:07;7.68;;;1.48;;
74528;SDS011;63009;52.584;5.932;2023-08-21T10:05:36;5.50;;;1.58;;
74528;SDS011;63009;52.584;5.932;2023-08-21T10:08:03;11.05;;;2.28;;
74528;SDS011;63009;52.584;5.932;2023-08-21T10:10:30;7.50;;;1.52;;
74528;SDS011;63009;52.584;5.932;2023-08-21T10:15:23;6.95;;;1.48;;
74528;SDS011;63009;52.584;5.932;2023-08-21T10:17:49;9.00;;;1.95;;
74528;SDS011;63009;52.584;5.932;2023-08-21T10:20:15;5.17;;;1.50;;
74528;SDS011;63009;52.584;5.932;2023-08-21T10:22:51;8.75;;;2.03;;
74528;SDS011;63009;52.584;5.932;2023-08-21T10:25:20;9.15;;;2.30;;
74528;SDS011;63009;52.584;5.932;2023-08-21T10:27:51;6.80;;;1.50;;
74528;SDS011;63009;52.584;5.932;2023-08-21T10:30:21;7.00;;;1.48;;
74528;SDS011;63009;52.584;5.932;2023-08-21T10:32:50;5.93;;;1.60;;
74528;SDS011;63009;52.584;5.932;2023-08-21T10:35:28;7.85;;;1.50;;
74528;SDS011;63009;52.584;5.932;2023-08-21T10:38:14;9.82;;;1.98;;
74528;SDS011;63009;52.584;5.932;2023-08-21T10:41:03;8.55;;;1.77;;
74528;SDS011;63009;52.584;5.932;2023-08-21T10:46:04;8.20;;;2.05;;
74528;SDS011;63009;52.584;5.932;2023-08-21T10:48:30;9.68;;;2.22;;
74528;SDS011;63009;52.584;5.932;2023-08-21T10:50:55;8.30;;;2.10;;
74528;SDS011;63009;52.584;5.932;2023-08-21T10:53:23;9.13;;;1.98;;
74528;SDS011;63009;52.584;5.932;2023-08-21T10:55:54;8.75;;;1.85;;
74528;SDS011;63009;52.584;5.932;2023-08-21T10:58:20;8.23;;;2.35;;
74528;SDS011;63009;52.584;5.932;2023-08-21T11:00:45;9.80;;;2.22;;
74528;SDS011;63009;52.584;5.932;2023-08-21T11:03:11;7.30;;;2.33;;
74528;SDS011;63009;52.584;5.932;2023-08-21T11:05:36;6.90;;;2.27;;
74528;SDS011;63009;52.584;5.932;2023-08-21T11:08:01;8.10;;;2.10;;
74528;SDS011;63009;52.584;5.932;2023-08-21T11:10:29;5.93;;;1.73;;
74528;SDS011;63009;52.584;5.932;2023-08-21T11:12:56;6.30;;;1.75;;
74528;SDS011;63009;52.584;5.932;2023-08-21T11:15:28;6.40;;;1.90;;
74528;SDS011;63009;52.584;5.932;2023-08-21T11:17:55;9.77;;;2.05;;
74528;SDS011;63009;52.584;5.932;2023-08-21T11:20:30;8.52;;;2.15;;
74528;SDS011;63009;52.584;5.932;2023-08-21T11:22:57;8.32;;;2.10;;
74528;SDS011;63009;52.584;5.932;2023-08-21T11:25:24;8.57;;;2.35;;
74528;SDS011;63009;52.584;5.932;2023-08-21T11:27:49;7.17;;;1.70;;
74528;SDS011;63009;52.584;5.932;2023-08-21T11:30:14;7.97;;;1.50;;
74528;SDS011;63009;52.584;5.932;2023-08-21T11:32:39;9.47;;;1.93;;
74528;SDS011;63009;52.584;5.932;2023-08-21T11:35:05;7.35;;;1.70;;
74528;SDS011;63009;52.584;5.932;2023-08-21T11:37:30;5.90;;;1.58;;
74528;SDS011;63009;52.584;5.932;2023-08-21T11:39:56;6.63;;;1.50;;
74528;SDS011;63009;52.584;5.932;2023-08-21T11:42:28;7.10;;;1.80;;
74528;SDS011;63009;52.584;5.932;2023-08-21T11:44:54;6.88;;;2.03;;
74528;SDS011;63009;52.584;5.932;2023-08-21T11:47:21;8.10;;;1.90;;
74528;SDS011;63009;52.584;5.932;2023-08-21T11:49:48;4.68;;;1.30;;
74528;SDS011;63009;52.584;5.932;2023-08-21T11:52:17;4.60;;;1.48;;
74528;SDS011;63009;52.584;5.932;2023-08-21T11:54:47;6.90;;;1.70;;
74528;SDS011;63009;52.584;5.932;2023-08-21T11:57:13;12.13;;;1.90;;
74528;SDS011;63009;52.584;5.932;2023-08-21T11:59:39;6.57;;;1.63;;
74528;SDS011;63009;52.584;5.932;2023-08-21T12:02:09;6.53;;;1.35;;
74528;SDS011;63009;52.584;5.932;2023-08-21T12:04:52;5.78;;;1.83;;
74528;SDS011;63009;52.584;5.932;2023-08-21T12:07:18;7.03;;;1.58;;
74528;SDS011;63009;52.584;5.932;2023-08-21T12:09:47;8.07;;;1.80;;
74528;SDS011;63009;52.584;5.932;2023-08-21T12:12:14;7.30;;;1.40;;
74528;SDS011;63009;52.584;5.932;2023-08-21T12:14:39;5.63;;;1.50;;
74528;SDS011;63009;52.584;5.932;2023-08-21T12:17:04;6.73;;;1.90;;
74528;SDS011;63009;52.584;5.932;2023-08-21T12:19:30;10.10;;;1.95;;
74528;SDS011;63009;52.584;5.932;2023-08-21T12:21:56;7.25;;;1.50;;
74528;SDS011;63009;52.584;5.932;2023-08-21T12:24:23;8.60;;;2.05;;
74528;SDS011;63009;52.584;5.932;2023-08-21T12:26:48;6.80;;;2.20;;
74528;SDS011;63009;52.584;5.932;2023-08-21T12:29:13;7.20;;;1.47;;
74528;SDS011;63009;52.584;5.932;2023-08-21T12:31:39;9.27;;;1.67;;
74528;SDS011;63009;52.584;5.932;2023-08-21T12:34:04;6.60;;;1.30;;
74528;SDS011;63009;52.584;5.932;2023-08-21T12:36:29;6.68;;;1.60;;
74528;SDS011;63009;52.584;5.932;2023-08-21T12:38:55;6.47;;;1.50;;
74528;SDS011;63009;52.584;5.932;2023-08-21T12:41:20;10.67;;;1.70;;
74528;SDS011;63009;52.584;5.932;2023-08-21T12:43:45;7.37;;;1.80;;
74528;SDS011;63009;52.584;5.932;2023-08-21T12:46:10;6.50;;;1.57;;
74528;SDS011;63009;52.584;5.932;2023-08-21T12:48:36;7.13;;;1.80;;
74528;SDS011;63009;52.584;5.932;2023-08-21T12:51:01;6.93;;;1.88;;
74528;SDS011;63009;52.584;5.932;2023-08-21T12:53:27;6.60;;;1.70;;
74528;SDS011;63009;52.584;5.932;2023-08-21T12:55:52;10.00;;;1.83;;
74528;SDS011;63009;52.584;5.932;2023-08-21T12:58:18;5.85;;;1.40;;
74528;SDS011;63009;52.584;5.932;2023-08-21T13:00:43;7.80;;;2.17;;
74528;SDS011;63009;52.584;5.932;2023-08-21T13:03:09;6.87;;;1.50;;
74528;SDS011;63009;52.584;5.932;2023-08-21T13:05:34;5.55;;;1.80;;
74528;SDS011;63009;52.584;5.932;2023-08-21T13:07:59;17.60;;;4.40;;
74528;SDS011;63009;52.584;5.932;2023-08-21T13:10:25;7.88;;;1.77;;
74528;SDS011;63009;52.584;5.932;2023-08-21T13:12:50;9.27;;;1.60;;
74528;SDS011;63009;52.584;5.932;2023-08-21T13:15:16;6.35;;;1.30;;
74528;SDS011;63009;52.584;5.932;2023-08-21T13:17:42;6.45;;;1.48;;
74528;SDS011;63009;52.584;5.932;2023-08-21T13:20:08;6.93;;;1.40;;
74528;SDS011;63009;52.584;5.932;2023-08-21T13:22:48;10.35;;;1.92;;
74528;SDS011;63009;52.584;5.932;2023-08-21T13:25:21;9.15;;;1.58;;
74528;SDS011;63009;52.584;5.932;2023-08-21T13:27:49;8.40;;;1.70;;
74528;SDS011;63009;52.584;5.932;2023-08-21T13:30:14;7.47;;;1.70;;
74528;SDS011;63009;52.584;5.932;2023-08-21T13:32:41;6.90;;;1.23;;
74528;SDS011;63009;52.584;5.932;2023-08-21T13:35:06;8.18;;;1.50;;
74528;SDS011;63009;52.584;5.932;2023-08-21T13:37:33;9.88;;;2.00;;
74528;SDS011;63009;52.584;5.932;2023-08-21T13:39:59;8.38;;;1.80;;
74528;SDS011;63009;52.584;5.932;2023-08-21T13:42:25;7.25;;;1.50;;
74528;SDS011;63009;52.584;5.932;2023-08-21T13:44:50;7.30;;;1.70;;
74528;SDS011;63009;52.584;5.932;2023-08-21T13:47:16;6.45;;;1.30;;
74528;SDS011;63009;52.584;5.932;2023-08-21T13:49:41;7.45;;;1.80;;
74528;SDS011;63009;52.584;5.932;2023-08-21T13:52:06;5.97;;;1.60;;
74528;SDS011;63009;52.584;5.932;2023-08-21T13:54:32;8.27;;;1.80;;
74528;SDS011;63009;52.584;5.932;2023-08-21T13:56:57;5.57;;;1.50;;
74528;SDS011;63009;52.584;5.932;2023-08-21T13:59:24;9.07;;;1.65;;
74528;SDS011;63009;52.584;5.932;2023-08-21T14:01:49;6.30;;;1.40;;
74528;SDS011;63009;52.584;5.932;2023-08-21T14:04:14;4.90;;;1.30;;
74528;SDS011;63009;52.584;5.932;2023-08-21T14:06:40;7.67;;;1.43;;
74528;SDS011;63009;52.584;5.932;2023-08-21T14:09:05;7.47;;;1.80;;
74528;SDS011;63009;52.584;5.932;2023-08-21T14:11:30;5.67;;;1.30;;
74528;SDS011;63009;52.584;5.932;2023-08-21T14:13:56;7.97;;;1.43;;
74528;SDS011;63009;52.584;5.932;2023-08-21T14:16:21;8.10;;;1.57;;
74528;SDS011;63009;52.584;5.932;2023-08-21T14:18:46;5.60;;;1.40;;
74528;SDS011;63009;52.584;5.932;2023-08-21T14:21:11;7.73;;;1.77;;
74528;SDS011;63009;52.584;5.932;2023-08-21T14:23:37;6.43;;;1.50;;
74528;SDS011;63009;52.584;5.932;2023-08-21T14:26:04;8.38;;;1.40;;
74528;SDS011;63009;52.584;5.932;2023-08-21T14:28:29;3.80;;;1.10;;
74528;SDS011;63009;52.584;5.932;2023-08-21T14:30:54;5.57;;;1.65;;
74528;SDS011;63009;52.584;5.932;2023-08-21T14:33:20;6.45;;;1.40;;
74528;SDS011;63009;52.584;5.932;2023-08-21T14:35:46;6.00;;;1.42;;
74528;SDS011;63009;52.584;5.932;2023-08-21T14:38:11;6.30;;;1.63;;
74528;SDS011;63009;52.584;5.932;2023-08-21T14:40:37;8.27;;;2.25;;
74528;SDS011;63009;52.584;5.932;2023-08-21T14:43:02;9.57;;;2.27;;
74528;SDS011;63009;52.584;5.932;2023-08-21T14:45:27;7.00;;;2.00;;